Latest Weather Observations for Palmerville

IDQ60801

Issued at 4:35 pm EST Wednesday 26 November 2014 (issued every 30 minutes, with the page automatically refreshed every 10 minutes)

About weather observations | Map of weather stations | Latest weather observations for QLD | Other Formats
Station Details ID: 028004 Name: PALMERVILLE Lat: -16.00 Lon: 144.08 Height: 203.8 m
Data from the previous 72 hours. | See also: Recent months at Palmerville
Date/Time
EST
Temp
°C
App
Temp
°C
Dew
Point
Rel
Hum
%
Delta-T
°C
Wind Press
QNH
hPa
Press
MSL
hPa
Rain
since 9 am
mm
Dir
 
Spd
km/h
Gust
km/h
Spd
kts
Gust
kts
26/04:30pm 33.4 32.1 16.7 36 10.7 NE 19 30 10 16 1007.0 1005.6 0.0
26/04:00pm 34.1 32.7 16.5 35 11.3 NNE 19 28 10 15 1006.9 1005.5 0.0
26/03:30pm 34.6 32.6 15.5 32 12.1 N 20 28 11 15 1006.8 1005.4 0.0
26/03:00pm 34.4 32.3 15.3 31 12.0 NNE 20 35 11 19 1007.1 1005.7 0.0
26/02:30pm 36.8 36.1 15.3 28 13.6 N 13 19 7 10 1007.1 1005.7 0.0
26/02:00pm 36.8 35.4 13.5 24 14.4 E 13 20 7 11 1007.4 1006.0 0.0
26/01:30pm 35.6 35.1 14.8 28 13.0 NNE 11 20 6 11 1008.0 1006.5 0.0
26/01:00pm 35.5 34.0 15.3 30 12.8 NNE 17 26 9 14 1008.5 1007.0 0.0
26/12:30pm 35.7 36.1 16.4 31 12.4 NE 9 15 5 8 1008.9 1007.4 0.0
26/12:00pm 33.7 33.6 16.1 34 11.2 NE 11 17 6 9 1009.5 1008.0 0.0
26/11:30am 34.6 34.7 16.4 33 11.6 ENE 11 19 6 10 1009.8 1008.4 0.0
26/11:00am 33.7 34.2 17.4 37 10.5 E 11 19 6 10 1010.4 1009.0 0.0
26/10:30am 32.2 33.0 17.3 41 9.6 ESE 9 20 5 11 1010.8 1009.4 0.0
26/10:00am 32.1 33.0 18.3 44 9.0 E 11 20 6 11 1011.1 1009.7 0.0
26/09:30am 30.4 31.3 17.5 46 8.3 ESE 9 22 5 12 1011.5 1010.1 0.0
26/09:00am 29.3 28.8 17.8 50 7.4 ESE 17 24 9 13 1011.6 1010.2 0.0
26/08:30am 28.5 28.8 18.0 53 6.7 ENE 13 20 7 11 1011.6 1010.2 0.0
26/08:00am 27.1 28.9 18.7 60 5.4 ENE 7 15 4 8 1011.5 1010.1 0.0
26/07:30am 26.3 27.8 18.9 63 4.8 SSE 9 13 5 7 1011.2 1009.8 0.0
26/07:00am 24.0 27.0 18.4 71 3.6 CALM 0 0 0 0 1011.4 1010.0 0.0
26/06:30am 21.4 24.0 17.6 79 2.4 CALM 0 0 0 0 1011.1 1009.7 0.0
26/06:00am 20.6 23.1 17.2 81 2.1 CALM 0 0 0 0 1010.8 1009.4 0.0
26/05:30am 20.7 23.1 17.1 80 2.2 CALM 0 0 0 0 1010.4 1009.0 0.0
26/05:00am 21.3 23.8 17.3 78 2.5 CALM 0 0 0 0 1010.3 1008.9 0.0
26/04:30am 21.8 24.4 17.6 77 2.6 CALM 0 0 0 0 1009.9 1008.5 0.0
26/04:00am 22.4 25.1 17.8 75 2.9 CALM 0 0 0 0 1009.7 1008.3 0.0
26/03:30am 23.4 26.1 17.8 71 3.5 CALM 0 0 0 0 1009.8 1008.4 0.0
26/03:00am 23.8 26.6 18.0 70 3.7 CALM 0 6 0 3 1009.6 1008.1 0.0
26/02:30am 24.6 25.7 18.1 67 4.1 NNE 9 15 5 8 1009.6 1008.1 0.0
26/02:00am 24.7 25.8 17.9 66 4.3 NNE 9 13 5 7 1009.7 1008.3 0.0
26/01:30am 25.0 26.2 18.2 66 4.3 NE 9 15 5 8 1009.8 1008.4 0.0
26/01:00am 25.0 26.7 18.0 65 4.4 NE 6 13 3 7 1010.1 1008.7 0.0
26/12:30am 24.9 26.5 17.9 65 4.4 NNE 6 11 3 6 1010.2 1008.8 0.0
26/12:00am 25.2 26.8 17.9 64 4.6 NNE 6 11 3 6 1010.6 1009.2 0.0
 
Date/Time
EST
Temp
°C
App
Temp
°C
Dew
Point
Rel
Hum
%
Delta-T
°C
Wind Press
QNH
hPa
Press
MSL
hPa
Rain
since 9 am
mm
Dir
 
Spd
km/h
Gust
km/h
Spd
kts
Gust
kts
25/11:30pm 25.7 26.8 18.1 63 4.8 NE 9 13 5 7 1010.9 1009.5 0.0
25/11:00pm 26.0 26.9 17.6 60 5.3 NE 9 15 5 8 1011.1 1009.7 0.0
25/10:30pm 26.4 26.6 17.7 58 5.5 NE 13 24 7 13 1011.1 1009.7 0.0
25/10:00pm 26.9 26.6 17.4 56 6.0 NE 15 26 8 14 1010.9 1009.5 0.0
25/09:30pm 27.4 26.7 17.3 54 6.4 ENE 17 26 9 14 1010.5 1009.1 0.0
25/09:00pm 28.1 28.0 17.0 51 7.0 ENE 13 20 7 11 1010.2 1008.8 0.0
25/08:30pm 28.8 28.5 16.4 47 7.8 NE 13 22 7 12 1009.8 1008.4 0.0
25/08:00pm 29.5 29.0 16.0 44 8.4 NE 13 19 7 10 1009.5 1008.0 0.0
25/07:30pm 30.5 29.0 15.4 40 9.4 ENE 17 28 9 15 1009.0 1007.5 0.0
25/07:00pm 31.5 29.9 15.0 36 10.2 NE 17 26 9 14 1008.4 1006.9 0.0
25/06:30pm 32.5 29.9 13.7 32 11.5 NNE 20 30 11 16 1007.9 1006.4 0.0
25/06:00pm 33.2 30.4 13.3 30 12.1 NNE 20 28 11 15 1007.4 1006.0 0.0
25/05:30pm 34.1 32.4 13.5 28 12.6 ENE 15 24 8 13 1007.1 1005.7 0.0
25/05:00pm 34.6 32.3 12.9 27 13.2 NE 17 26 9 14 1006.7 1005.3 0.0
25/04:30pm 35.6 34.1 13.1 25 13.8 NE 13 22 7 12 1006.4 1005.0 0.0
25/04:00pm 35.9 34.1 13.4 26 13.9 NE 15 22 8 12 1006.3 1004.9 0.0
25/03:30pm 37.0 36.5 13.7 25 14.5 NE 9 13 5 7 1006.5 1005.1 0.0
25/03:00pm 36.0 34.6 13.5 26 13.9 ENE 13 26 7 14 1007.0 1005.6 0.0
25/02:30pm 36.3 35.0 13.7 25 14.0 NE 13 20 7 11 1007.2 1005.8 0.0
25/02:00pm 36.5 36.2 14.5 27 13.8 E 9 17 5 9 1007.5 1006.1 0.0
25/01:30pm 36.1 35.1 14.7 28 13.4 E 13 24 7 13 1008.1 1006.6 0.0
25/01:00pm 36.3 35.6 14.3 27 13.7 SE 11 22 6 12 1008.7 1007.2 0.0
25/12:30pm 34.9 33.0 14.2 28 12.8 E 17 26 9 14 1009.5 1008.0 0.0
25/12:00pm 34.6 34.1 15.0 31 12.3 E 11 22 6 12 1010.2 1008.8 0.0
25/11:30am 34.2 33.9 16.5 34 11.3 NE 13 20 7 11 1010.6 1009.2 0.0
25/11:00am 32.0 32.8 16.3 39 9.9 SSE 7 17 4 9 1010.9 1009.5 0.0
25/10:30am 32.9 32.5 17.1 39 10.1 E 15 24 8 13 1011.1 1009.7 0.0
25/10:00am 32.2 32.0 17.7 42 9.4 ENE 15 22 8 12 1011.7 1010.3 0.0
25/09:30am 30.8 30.3 17.8 45 8.4 ESE 17 24 9 13 1012.0 1010.6 0.0
25/09:00am 29.6 30.0 18.1 50 7.4 NE 13 20 7 11 1012.2 1010.8 0.0
25/08:30am 28.8 29.9 18.9 55 6.4 ENE 11 24 6 13 1012.5 1011.1 0.0
25/08:00am 27.3 28.3 18.6 59 5.6 E 11 17 6 9 1012.6 1011.2 0.0
25/07:30am 26.1 28.1 18.8 64 4.7 ENE 6 9 3 5 1012.4 1011.0 0.0
25/07:00am 24.5 27.6 18.7 70 3.7 CALM 0 0 0 0 1012.2 1010.8 0.0
25/06:30am 22.2 25.1 18.2 78 2.5 CALM 0 0 0 0 1011.8 1010.4 0.0
25/06:00am 21.1 23.8 17.7 81 2.1 CALM 0 0 0 0 1011.6 1010.2 0.0
25/05:30am 21.4 24.1 17.8 80 2.2 CALM 0 0 0 0 1011.5 1010.1 0.0
25/05:00am 21.7 24.5 17.9 79 2.4 CALM 0 0 0 0 1011.1 1009.7 0.0
25/04:30am 22.4 25.1 17.8 75 2.9 CALM 0 0 0 0 1010.8 1009.4 0.0
25/04:00am 23.1 25.8 17.8 72 3.3 CALM 0 6 0 3 1010.7 1009.3 0.0
25/03:30am 23.8 25.5 18.0 70 3.7 S 6 7 3 4 1010.5 1009.1 0.0
25/03:00am 24.6 26.4 18.3 68 4.0 ENE 6 11 3 6 1010.3 1008.9 0.0
25/02:30am 25.0 26.7 18.4 66 4.2 NE 7 15 4 8 1010.4 1009.0 0.0
25/02:00am 25.3 26.9 18.2 64 4.5 ENE 7 11 4 6 1010.5 1009.1 0.0
25/01:30am 25.4 26.3 18.3 65 4.5 ENE 11 17 6 9 1010.7 1009.3 0.0
25/01:00am 25.5 26.4 18.4 65 4.5 NE 11 15 6 8 1011.1 1009.7 0.0
25/12:30am 25.7 27.0 18.4 64 4.7 ENE 9 17 5 9 1011.4 1010.0 0.0
25/12:00am 26.0 26.1 18.4 63 4.9 ENE 15 26 8 14 1011.8 1010.4 0.0
 
Date/Time
EST
Temp
°C
App
Temp
°C
Dew
Point
Rel
Hum
%
Delta-T
°C
Wind Press
QNH
hPa
Press
MSL
hPa
Rain
since 9 am
mm
Dir
 
Spd
km/h
Gust
km/h
Spd
kts
Gust
kts
24/11:30pm 26.2 27.3 18.1 61 5.2 ENE 9 17 5 9 1012.2 1010.8 0.0
24/11:00pm 26.3 27.6 17.1 57 5.8 NNE 6 11 3 6 1012.5 1011.1 0.0
24/10:30pm 26.9 27.4 17.4 56 6.0 ENE 11 20 6 11 1012.4 1011.0 0.0
24/10:00pm 27.3 28.2 17.5 55 6.2 ENE 9 15 5 8 1012.2 1010.8 0.0
24/09:30pm 27.6 28.1 17.5 54 6.4 ENE 11 19 6 10 1011.9 1010.5 0.0
24/09:00pm 28.1 28.9 17.3 52 6.9 ENE 9 15 5 8 1011.4 1010.0 0.0
24/08:30pm 28.6 28.1 16.8 48 7.4 ENE 15 28 8 15 1011.0 1009.6 0.0
24/08:00pm 29.2 28.2 16.7 46 7.9 ENE 17 26 9 14 1010.6 1009.2 0.0
24/07:30pm 29.9 28.9 16.7 45 8.3 NE 17 24 9 13 1009.9 1008.5 0.0
24/07:00pm 30.4 29.7 16.4 43 8.8 ENE 15 24 8 13 1009.3 1007.8 0.0
24/06:30pm 31.5 30.7 15.0 36 10.2 NNE 13 26 7 14 1008.9 1007.4 0.0
24/06:00pm 32.3 29.5 14.4 33 11.0 NNE 22 35 12 19 1008.4 1006.9 0.0
24/05:30pm 32.9 31.2 15.8 35 10.8 NNE 19 26 10 14 1008.1 1006.6 0.0
24/05:00pm 33.2 32.2 15.7 35 11.0 NE 15 22 8 12 1008.1 1006.6 0.0
24/04:30pm 33.3 32.4 15.8 35 11.0 ENE 15 22 8 12 1008.1 1006.6 0.0
24/04:00pm 34.1 32.7 14.6 31 12.2 NE 15 20 8 11 1007.9 1006.4 0.0
24/03:30pm 34.2 33.0 14.1 29 12.4 NNE 13 20 7 11 1007.9 1006.4 0.0
24/03:00pm 34.8 34.0 14.1 28 12.8 ENE 11 19 6 10 1008.2 1006.7 0.0
24/02:30pm 35.1 34.4 14.4 29 12.9 NE 11 17 6 9 1008.5 1007.0 0.0
24/02:00pm 35.6 35.1 13.7 27 13.5 E 9 15 5 8 1008.9 1007.4 0.0
24/01:30pm 34.4 33.1 13.8 29 12.7 ESE 13 20 7 11 1009.5 1008.0 0.0
24/01:00pm 34.4 33.5 13.8 29 12.7 ENE 11 20 6 11 1010.0 1008.6 0.0
24/12:30pm 35.0 32.8 13.2 27 13.3 E 17 28 9 15 1010.5 1009.1 0.0
24/12:00pm 35.4 35.0 16.2 32 12.3 NE 13 24 7 13 1011.0 1009.6 0.0
24/11:30am 33.9 33.9 16.3 35 11.2 E 11 22 6 12 1011.7 1010.3 0.0
24/11:00am 33.8 33.6 16.6 35 11.0 E 13 20 7 11 1012.0 1010.6 0.0
24/10:30am 31.2 30.3 16.8 42 9.2 E 17 26 9 14 1012.6 1011.2 0.0
24/10:00am 31.5 31.8 17.0 41 9.3 ESE 11 20 6 11 1012.7 1011.3 0.0
24/09:30am 31.1 31.5 18.1 46 8.4 E 13 20 7 11 1013.2 1011.7 0.0
24/09:00am 29.5 30.4 18.3 51 7.2 NE 11 20 6 11 1013.4 1011.9 0.0
24/08:30am 27.5 29.1 18.2 57 6.0 NE 7 11 4 6 1013.5 1012.0 0.0
24/08:00am 27.8 29.8 18.8 58 5.8 E 6 11 3 6 1013.4 1011.9 0.0
24/07:30am 26.2 28.6 18.8 63 4.8 WSW 4 7 2 4 1013.4 1011.9 0.0
24/07:00am 25.2 27.9 18.6 67 4.2 SSW 2 7 1 4 1013.2 1011.7 0.0
24/06:30am 23.7 26.5 18.8 74 3.1 SE 2 7 1 4 1012.7 1011.3 0.0
24/06:00am 22.1 25.0 18.3 79 2.4 CALM 0 0 0 0 1012.6 1011.2 0.0
24/05:30am 22.0 24.7 17.8 77 2.6 CALM 0 0 0 0 1012.1 1010.7 0.0
24/05:00am 22.4 25.2 18.0 76 2.8 CALM 0 0 0 0 1011.7 1010.3 0.0
24/04:30am 23.0 25.9 18.1 74 3.1 CALM 0 0 0 0 1011.6 1010.2 0.0
24/04:00am 24.1 27.1 18.5 71 3.6 CALM 0 4 0 2 1011.7 1010.3 0.0
24/03:30am 24.3 26.3 18.7 71 3.6 NNE 6 9 3 5 1011.5 1010.1 0.0
24/03:00am 24.6 26.1 18.8 70 3.7 NNE 9 19 5 10 1011.6 1010.2 0.0
24/02:30am 24.8 26.2 18.7 69 3.9 NNE 9 15 5 8 1011.9 1010.5 0.0
24/02:00am 25.0 25.9 18.4 66 4.2 NNE 11 17 6 9 1012.1 1010.7 0.0
24/01:30am 25.1 26.3 18.3 66 4.3 NNE 9 13 5 7 1012.2 1010.8 0.0
24/01:00am 25.2 26.3 17.9 64 4.6 NE 9 13 5 7 1012.4 1011.0 0.0
24/12:30am 25.6 26.6 17.8 62 4.9 NE 9 15 5 8 1012.8 1011.4 0.0
24/12:00am 25.8 26.8 17.7 61 5.1 NNE 9 17 5 9 1012.9 1011.5 0.0
 
Date/Time
EST
Temp
°C
App
Temp
°C
Dew
Point
Rel
Hum
%
Delta-T
°C
Wind Press
QNH
hPa
Press
MSL
hPa
Rain
since 9 am
mm
Dir
 
Spd
km/h
Gust
km/h
Spd
kts
Gust
kts
23/11:30pm 26.2 26.0 17.6 59 5.4 NE 15 24 8 13 1013.3 1011.8 0.0
23/11:00pm 26.5 26.5 17.3 57 5.8 NE 13 20 7 11 1013.4 1011.9 0.0
23/10:30pm 26.9 26.5 17.1 55 6.2 NE 15 30 8 16 1013.3 1011.8 0.0
23/10:00pm 27.2 27.7 17.4 55 6.2 ENE 11 19 6 10 1012.9 1011.5 0.0
23/09:30pm 27.8 27.1 17.3 52 6.6 NE 17 26 9 14 1012.6 1011.2 0.0
23/09:00pm 28.2 27.5 17.4 52 6.9 NE 17 26 9 14 1012.2 1010.8 0.0
23/08:30pm 28.8 29.0 17.7 51 7.1 NE 13 24 7 13 1011.7 1010.3 0.0
23/08:00pm 29.3 28.3 17.5 49 7.5 NE 19 33 10 18 1011.4 1010.0 0.0
23/07:30pm 30.2 29.3 16.9 44 8.4 NE 17 26 9 14 1011.0 1009.6 0.0
23/07:00pm 30.9 30.0 16.9 43 8.9 NE 17 28 9 15 1010.5 1009.1 0.0
23/06:30pm 31.8 30.2 16.5 39 9.7 NE 20 32 11 17 1009.6 1008.1 0.0
23/06:00pm 32.6 30.8 16.0 36 10.5 N 20 32 11 17 1009.2 1007.7 0.0
23/05:30pm 34.0 32.9 15.4 32 11.7 NNE 15 22 8 12 1008.6 1007.1 0.0
23/05:00pm 34.4 32.2 14.8 30 12.3 NNE 20 32 11 17 1008.4 1006.9 0.0

Other Formats:

Comma delimited format used in spreadsheet applications
http://www.bom.gov.au/fwo/IDQ60801/IDQ60801.94276.axf

JavaScript Object Notation format (JSON) in row-major order
http://www.bom.gov.au/fwo/IDQ60801/IDQ60801.94276.json